Yuma Proving Ground, Arizona
Current Conditions -  °F | °C
As of 2:57 AM on Monday 22 Dec 2014 (Local Time) from KNYL Reporting Station
Broken Clouds Broken Clouds  
Wind Chill: 54°   Ceiling: 25000
Heat Index: 54°   Visibility: 10mi
Dew Point: 42°   Wind: 0mph
Humidity: 64%   Direction: NA
Pressure: 30.02"   Gusts: NA
Location:  32.7338°N, 114.51°W
Report Text: KNYL 220957Z 00000KT 10SM BKN250 12/06 A3002 RMK AO2 SLP165 T01220056 $
Loading
Personal Weather Stations






























Interactive Weather Map New forecast layout! Learn more

10-Day Weather Forecast

Advertisements
Track Severe Weather on mobile